sensor_id;sensor_type;location;lat;lon;timestamp;P1;durP1;ratioP1;P2;durP2;ratioP2
43552;SDS011;29153;42.696;23.218;2023-09-19T05:42:47;13.95;;;6.67;;
43552;SDS011;29153;42.696;23.218;2023-09-19T05:45:16;12.45;;;7.03;;
43552;SDS011;29153;42.696;23.218;2023-09-19T05:48:11;9.85;;;6.75;;
43552;SDS011;29153;42.696;23.218;2023-09-19T05:51:00;11.68;;;6.20;;
43552;SDS011;29153;42.696;23.218;2023-09-19T05:53:28;10.85;;;6.87;;
43552;SDS011;29153;42.696;23.218;2023-09-19T05:55:55;11.18;;;6.85;;
43552;SDS011;29153;42.696;23.218;2023-09-19T05:58:24;10.88;;;6.67;;
43552;SDS011;29153;42.696;23.218;2023-09-19T06:00:52;12.15;;;6.72;;
43552;SDS011;29153;42.696;23.218;2023-09-19T06:03:20;13.50;;;7.17;;
43552;SDS011;29153;42.696;23.218;2023-09-19T06:05:48;12.78;;;6.50;;
43552;SDS011;29153;42.696;23.218;2023-09-19T06:08:17;11.45;;;7.58;;
43552;SDS011;29153;42.696;23.218;2023-09-19T06:10:45;13.75;;;7.03;;
43552;SDS011;29153;42.696;23.218;2023-09-19T06:13:14;14.13;;;6.92;;
43552;SDS011;29153;42.696;23.218;2023-09-19T06:15:42;12.43;;;6.25;;
43552;SDS011;29153;42.696;23.218;2023-09-19T06:18:12;12.98;;;7.55;;
43552;SDS011;29153;42.696;23.218;2023-09-19T06:20:41;14.63;;;8.10;;
43552;SDS011;29153;42.696;23.218;2023-09-19T06:23:10;12.53;;;6.50;;
43552;SDS011;29153;42.696;23.218;2023-09-19T06:25:37;12.70;;;7.83;;
43552;SDS011;29153;42.696;23.218;2023-09-19T06:28:06;12.55;;;7.12;;
43552;SDS011;29153;42.696;23.218;2023-09-19T06:30:35;11.73;;;7.40;;
43552;SDS011;29153;42.696;23.218;2023-09-19T06:33:04;11.25;;;8.10;;
43552;SDS011;29153;42.696;23.218;2023-09-19T06:38:03;13.00;;;7.05;;
43552;SDS011;29153;42.696;23.218;2023-09-19T06:40:31;10.85;;;6.30;;
43552;SDS011;29153;42.696;23.218;2023-09-19T06:43:00;13.22;;;7.33;;
43552;SDS011;29153;42.696;23.218;2023-09-19T06:45:28;12.15;;;7.40;;
43552;SDS011;29153;42.696;23.218;2023-09-19T06:47:57;9.68;;;6.47;;
43552;SDS011;29153;42.696;23.218;2023-09-19T06:50:26;14.55;;;6.70;;
43552;SDS011;29153;42.696;23.218;2023-09-19T06:52:56;13.75;;;7.15;;
43552;SDS011;29153;42.696;23.218;2023-09-19T06:55:25;13.55;;;7.22;;
43552;SDS011;29153;42.696;23.218;2023-09-19T06:57:55;14.05;;;6.47;;
43552;SDS011;29153;42.696;23.218;2023-09-19T07:00:23;13.53;;;6.83;;
43552;SDS011;29153;42.696;23.218;2023-09-19T07:02:58;11.25;;;6.47;;
43552;SDS011;29153;42.696;23.218;2023-09-19T07:05:32;14.58;;;7.12;;
43552;SDS011;29153;42.696;23.218;2023-09-19T07:08:05;10.03;;;5.90;;
43552;SDS011;29153;42.696;23.218;2023-09-19T07:10:35;9.78;;;6.78;;
43552;SDS011;29153;42.696;23.218;2023-09-19T07:13:06;10.75;;;6.87;;
43552;SDS011;29153;42.696;23.218;2023-09-19T07:15:38;11.05;;;6.28;;
43552;SDS011;29153;42.696;23.218;2023-09-19T07:18:07;12.05;;;6.50;;
43552;SDS011;29153;42.696;23.218;2023-09-19T07:20:36;11.50;;;6.75;;
43552;SDS011;29153;42.696;23.218;2023-09-19T07:23:04;12.43;;;6.37;;
43552;SDS011;29153;42.696;23.218;2023-09-19T07:25:31;11.10;;;6.67;;
43552;SDS011;29153;42.696;23.218;2023-09-19T07:27:59;13.55;;;6.22;;
43552;SDS011;29153;42.696;23.218;2023-09-19T07:30:26;14.30;;;6.60;;
43552;SDS011;29153;42.696;23.218;2023-09-19T07:32:54;13.72;;;6.50;;
43552;SDS011;29153;42.696;23.218;2023-09-19T07:35:22;12.85;;;7.12;;
43552;SDS011;29153;42.696;23.218;2023-09-19T07:37:50;11.05;;;6.47;;
43552;SDS011;29153;42.696;23.218;2023-09-19T07:40:18;10.25;;;6.83;;
43552;SDS011;29153;42.696;23.218;2023-09-19T07:42:52;9.68;;;6.35;;
43552;SDS011;29153;42.696;23.218;2023-09-19T07:45:25;13.93;;;6.08;;
43552;SDS011;29153;42.696;23.218;2023-09-19T07:47:53;12.58;;;6.97;;
43552;SDS011;29153;42.696;23.218;2023-09-19T07:50:21;12.60;;;6.53;;
43552;SDS011;29153;42.696;23.218;2023-09-19T07:52:49;12.45;;;6.87;;
43552;SDS011;29153;42.696;23.218;2023-09-19T07:55:18;15.00;;;6.75;;
43552;SDS011;29153;42.696;23.218;2023-09-19T07:57:48;16.23;;;5.95;;
43552;SDS011;29153;42.696;23.218;2023-09-19T08:00:15;15.13;;;7.12;;
43552;SDS011;29153;42.696;23.218;2023-09-19T08:02:43;11.20;;;6.40;;
43552;SDS011;29153;42.696;23.218;2023-09-19T08:05:11;10.03;;;5.72;;
43552;SDS011;29153;42.696;23.218;2023-09-19T08:07:41;11.55;;;6.30;;
43552;SDS011;29153;42.696;23.218;2023-09-19T08:10:12;12.03;;;7.15;;
43552;SDS011;29153;42.696;23.218;2023-09-19T08:12:41;9.38;;;6.12;;
43552;SDS011;29153;42.696;23.218;2023-09-19T08:15:16;12.88;;;6.53;;
43552;SDS011;29153;42.696;23.218;2023-09-19T08:17:47;8.98;;;6.10;;
43552;SDS011;29153;42.696;23.218;2023-09-19T08:22:55;12.05;;;6.10;;
43552;SDS011;29153;42.696;23.218;2023-09-19T08:25:23;12.68;;;6.83;;
43552;SDS011;29153;42.696;23.218;2023-09-19T08:27:52;13.72;;;5.87;;
43552;SDS011;29153;42.696;23.218;2023-09-19T08:30:23;11.12;;;5.95;;
43552;SDS011;29153;42.696;23.218;2023-09-19T08:33:01;12.58;;;5.62;;
43552;SDS011;29153;42.696;23.218;2023-09-19T08:35:30;11.10;;;5.55;;
43552;SDS011;29153;42.696;23.218;2023-09-19T08:37:57;10.28;;;5.55;;
43552;SDS011;29153;42.696;23.218;2023-09-19T08:40:27;11.15;;;6.17;;
43552;SDS011;29153;42.696;23.218;2023-09-19T08:42:55;11.45;;;6.00;;
43552;SDS011;29153;42.696;23.218;2023-09-19T08:45:23;9.33;;;4.78;;
43552;SDS011;29153;42.696;23.218;2023-09-19T08:47:56;9.45;;;5.62;;
43552;SDS011;29153;42.696;23.218;2023-09-19T08:50:28;13.28;;;5.62;;
43552;SDS011;29153;42.696;23.218;2023-09-19T08:52:56;10.72;;;6.10;;
43552;SDS011;29153;42.696;23.218;2023-09-19T08:55:27;13.13;;;5.53;;
43552;SDS011;29153;42.696;23.218;2023-09-19T08:57:59;11.45;;;5.62;;
43552;SDS011;29153;42.696;23.218;2023-09-19T09:00:28;9.88;;;5.12;;
43552;SDS011;29153;42.696;23.218;2023-09-19T09:02:57;12.68;;;6.40;;
43552;SDS011;29153;42.696;23.218;2023-09-19T09:05:27;12.40;;;6.10;;
43552;SDS011;29153;42.696;23.218;2023-09-19T09:07:57;11.48;;;6.22;;
43552;SDS011;29153;42.696;23.218;2023-09-19T09:10:25;9.40;;;5.33;;
43552;SDS011;29153;42.696;23.218;2023-09-19T09:15:23;10.30;;;6.00;;
43552;SDS011;29153;42.696;23.218;2023-09-19T09:17:51;7.72;;;4.97;;
43552;SDS011;29153;42.696;23.218;2023-09-19T09:20:22;10.98;;;5.12;;
43552;SDS011;29153;42.696;23.218;2023-09-19T09:22:50;10.35;;;5.12;;
43552;SDS011;29153;42.696;23.218;2023-09-19T09:25:23;11.83;;;5.42;;
43552;SDS011;29153;42.696;23.218;2023-09-19T09:28:00;10.30;;;4.80;;
43552;SDS011;29153;42.696;23.218;2023-09-19T09:30:35;7.17;;;5.37;;
43552;SDS011;29153;42.696;23.218;2023-09-19T09:33:09;8.93;;;4.60;;
43552;SDS011;29153;42.696;23.218;2023-09-19T09:35:47;12.70;;;5.03;;
43552;SDS011;29153;42.696;23.218;2023-09-19T09:38:22;16.95;;;6.10;;
43552;SDS011;29153;42.696;23.218;2023-09-19T09:40:57;9.03;;;5.95;;
43552;SDS011;29153;42.696;23.218;2023-09-19T09:43:32;10.80;;;6.15;;
43552;SDS011;29153;42.696;23.218;2023-09-19T09:46:09;13.68;;;6.53;;
43552;SDS011;29153;42.696;23.218;2023-09-19T09:51:42;10.53;;;5.85;;
43552;SDS011;29153;42.696;23.218;2023-09-19T09:54:15;12.00;;;6.28;;
43552;SDS011;29153;42.696;23.218;2023-09-19T09:56:58;13.30;;;5.72;;
43552;SDS011;29153;42.696;23.218;2023-09-19T10:02:14;9.70;;;6.08;;
43552;SDS011;29153;42.696;23.218;2023-09-19T10:04:43;12.10;;;6.30;;
43552;SDS011;29153;42.696;23.218;2023-09-19T10:07:23;11.12;;;5.72;;
43552;SDS011;29153;42.696;23.218;2023-09-19T10:09:46;15.72;;;5.30;;
43552;SDS011;29153;42.696;23.218;2023-09-19T10:12:14;11.28;;;6.00;;
43552;SDS011;29153;42.696;23.218;2023-09-19T10:14:44;12.43;;;5.67;;
43552;SDS011;29153;42.696;23.218;2023-09-19T10:17:12;10.43;;;5.95;;
43552;SDS011;29153;42.696;23.218;2023-09-19T10:19:57;12.98;;;5.78;;
43552;SDS011;29153;42.696;23.218;2023-09-19T10:22:26;10.00;;;5.30;;
43552;SDS011;29153;42.696;23.218;2023-09-19T10:24:57;13.28;;;6.12;;
43552;SDS011;29153;42.696;23.218;2023-09-19T10:27:29;14.95;;;6.42;;
43552;SDS011;29153;42.696;23.218;2023-09-19T10:30:00;18.67;;;6.12;;
43552;SDS011;29153;42.696;23.218;2023-09-19T10:32:28;12.18;;;5.20;;
43552;SDS011;29153;42.696;23.218;2023-09-19T10:34:58;9.13;;;4.62;;
43552;SDS011;29153;42.696;23.218;2023-09-19T10:37:29;11.15;;;5.12;;
43552;SDS011;29153;42.696;23.218;2023-09-19T10:39:58;9.00;;;5.00;;
43552;SDS011;29153;42.696;23.218;2023-09-19T10:42:26;8.95;;;4.90;;
43552;SDS011;29153;42.696;23.218;2023-09-19T10:44:55;9.68;;;4.87;;
43552;SDS011;29153;42.696;23.218;2023-09-19T10:47:27;14.83;;;5.20;;
43552;SDS011;29153;42.696;23.218;2023-09-19T10:49:54;11.05;;;5.20;;
43552;SDS011;29153;42.696;23.218;2023-09-19T10:54:52;7.95;;;4.65;;
43552;SDS011;29153;42.696;23.218;2023-09-19T10:57:23;8.70;;;5.30;;
43552;SDS011;29153;42.696;23.218;2023-09-19T11:00:05;15.18;;;5.25;;
43552;SDS011;29153;42.696;23.218;2023-09-19T11:05:40;10.68;;;5.80;;
43552;SDS011;29153;42.696;23.218;2023-09-19T11:08:09;11.73;;;5.45;;
43552;SDS011;29153;42.696;23.218;2023-09-19T11:13:26;9.60;;;5.30;;
43552;SDS011;29153;42.696;23.218;2023-09-19T11:26:50;8.55;;;4.92;;
43552;SDS011;29153;42.696;23.218;2023-09-19T11:29:26;11.38;;;5.33;;
43552;SDS011;29153;42.696;23.218;2023-09-19T11:31:55;11.25;;;5.22;;
43552;SDS011;29153;42.696;23.218;2023-09-19T11:42:44;9.53;;;5.17;;
43552;SDS011;29153;42.696;23.218;2023-09-19T11:48:17;8.48;;;5.05;;
43552;SDS011;29153;42.696;23.218;2023-09-19T11:50:45;10.60;;;5.00;;
43552;SDS011;29153;42.696;23.218;2023-09-19T11:53:14;10.03;;;5.00;;
43552;SDS011;29153;42.696;23.218;2023-09-19T11:55:45;11.95;;;5.53;;
43552;SDS011;29153;42.696;23.218;2023-09-19T11:58:17;11.00;;;5.05;;
43552;SDS011;29153;42.696;23.218;2023-09-19T12:00:45;9.48;;;5.03;;
43552;SDS011;29153;42.696;23.218;2023-09-19T12:03:15;43.02;;;20.10;;
43552;SDS011;29153;42.696;23.218;2023-09-19T12:05:44;25.90;;;11.83;;
43552;SDS011;29153;42.696;23.218;2023-09-19T12:08:11;17.45;;;7.20;;
43552;SDS011;29153;42.696;23.218;2023-09-19T12:10:46;11.97;;;5.80;;
43552;SDS011;29153;42.696;23.218;2023-09-19T12:13:18;11.50;;;5.33;;
43552;SDS011;29153;42.696;23.218;2023-09-19T12:15:46;9.70;;;5.72;;
43552;SDS011;29153;42.696;23.218;2023-09-19T12:18:32;11.68;;;5.25;;
43552;SDS011;29153;42.696;23.218;2023-09-19T12:20:56;9.83;;;5.20;;
43552;SDS011;29153;42.696;23.218;2023-09-19T12:23:29;9.75;;;6.10;;
43552;SDS011;29153;42.696;23.218;2023-09-19T12:25:56;13.10;;;5.58;;
43552;SDS011;29153;42.696;23.218;2023-09-19T12:28:28;7.72;;;4.15;;
43552;SDS011;29153;42.696;23.218;2023-09-19T12:30:56;7.17;;;5.12;;
43552;SDS011;29153;42.696;23.218;2023-09-19T12:33:23;7.00;;;4.90;;
43552;SDS011;29153;42.696;23.218;2023-09-19T12:35:52;11.70;;;4.78;;
43552;SDS011;29153;42.696;23.218;2023-09-19T12:38:22;10.05;;;5.35;;
43552;SDS011;29153;42.696;23.218;2023-09-19T12:40:58;10.08;;;4.95;;
43552;SDS011;29153;42.696;23.218;2023-09-19T12:43:28;8.60;;;5.15;;
43552;SDS011;29153;42.696;23.218;2023-09-19T12:45:57;9.30;;;4.95;;
43552;SDS011;29153;42.696;23.218;2023-09-19T12:51:00;11.93;;;5.08;;
43552;SDS011;29153;42.696;23.218;2023-09-19T12:53:41;7.85;;;5.17;;
43552;SDS011;29153;42.696;23.218;2023-09-19T12:56:07;6.58;;;4.83;;
43552;SDS011;29153;42.696;23.218;2023-09-19T12:58:52;8.73;;;4.25;;
43552;SDS011;29153;42.696;23.218;2023-09-19T13:01:25;10.63;;;5.08;;
43552;SDS011;29153;42.696;23.218;2023-09-19T13:04:12;8.08;;;4.83;;
43552;SDS011;29153;42.696;23.218;2023-09-19T13:06:51;7.92;;;4.28;;
43552;SDS011;29153;42.696;23.218;2023-09-19T13:09:21;12.10;;;4.90;;
43552;SDS011;29153;42.696;23.218;2023-09-19T13:11:57;8.88;;;4.65;;
43552;SDS011;29153;42.696;23.218;2023-09-19T13:19:48;11.73;;;5.58;;
43552;SDS011;29153;42.696;23.218;2023-09-19T13:25:21;7.55;;;4.78;;
43552;SDS011;29153;42.696;23.218;2023-09-19T13:30:23;8.08;;;5.12;;
43552;SDS011;29153;42.696;23.218;2023-09-19T13:32:52;8.45;;;4.28;;
43552;SDS011;29153;42.696;23.218;2023-09-19T13:35:21;7.62;;;5.08;;
43552;SDS011;29153;42.696;23.218;2023-09-19T13:37:49;8.05;;;4.80;;
43552;SDS011;29153;42.696;23.218;2023-09-19T13:40:17;8.93;;;4.28;;
43552;SDS011;29153;42.696;23.218;2023-09-19T13:42:45;7.30;;;4.72;;
43552;SDS011;29153;42.696;23.218;2023-09-19T13:47:41;10.63;;;4.62;;
43552;SDS011;29153;42.696;23.218;2023-09-19T13:50:09;8.48;;;4.58;;
43552;SDS011;29153;42.696;23.218;2023-09-19T13:52:39;7.58;;;4.92;;
43552;SDS011;29153;42.696;23.218;2023-09-19T13:55:08;6.40;;;3.90;;
43552;SDS011;29153;42.696;23.218;2023-09-19T13:57:36;17.45;;;4.22;;
43552;SDS011;29153;42.696;23.218;2023-09-19T14:00:03;8.13;;;4.08;;
43552;SDS011;29153;42.696;23.218;2023-09-19T14:02:33;8.28;;;4.33;;
43552;SDS011;29153;42.696;23.218;2023-09-19T14:05:01;7.78;;;4.15;;
43552;SDS011;29153;42.696;23.218;2023-09-19T14:07:28;7.20;;;3.77;;
43552;SDS011;29153;42.696;23.218;2023-09-19T14:09:56;15.40;;;4.95;;
43552;SDS011;29153;42.696;23.218;2023-09-19T14:12:23;10.72;;;4.80;;
43552;SDS011;29153;42.696;23.218;2023-09-19T14:14:51;8.88;;;5.05;;
43552;SDS011;29153;42.696;23.218;2023-09-19T14:17:20;7.30;;;4.67;;
43552;SDS011;29153;42.696;23.218;2023-09-19T14:19:47;7.72;;;4.60;;
43552;SDS011;29153;42.696;23.218;2023-09-19T14:22:14;8.45;;;4.37;;
43552;SDS011;29153;42.696;23.218;2023-09-19T14:24:42;9.18;;;4.75;;
43552;SDS011;29153;42.696;23.218;2023-09-19T14:27:09;7.15;;;5.00;;
43552;SDS011;29153;42.696;23.218;2023-09-19T14:29:37;7.42;;;4.35;;
43552;SDS011;29153;42.696;23.218;2023-09-19T14:32:05;5.80;;;4.58;;
43552;SDS011;29153;42.696;23.218;2023-09-19T14:34:32;8.73;;;4.90;;
43552;SDS011;29153;42.696;23.218;2023-09-19T14:37:01;11.68;;;5.10;;
43552;SDS011;29153;42.696;23.218;2023-09-19T14:39:29;6.75;;;4.20;;
43552;SDS011;29153;42.696;23.218;2023-09-19T14:41:57;14.38;;;5.22;;
43552;SDS011;29153;42.696;23.218;2023-09-19T14:44:24;8.23;;;5.05;;
43552;SDS011;29153;42.696;23.218;2023-09-19T14:46:53;9.00;;;5.05;;
43552;SDS011;29153;42.696;23.218;2023-09-19T14:49:21;9.95;;;5.22;;
43552;SDS011;29153;42.696;23.218;2023-09-19T14:51:49;6.87;;;4.80;;
43552;SDS011;29153;42.696;23.218;2023-09-19T14:54:18;8.68;;;5.60;;
43552;SDS011;29153;42.696;23.218;2023-09-19T14:56:45;12.70;;;5.65;;
43552;SDS011;29153;42.696;23.218;2023-09-19T14:59:14;9.05;;;5.12;;
43552;SDS011;29153;42.696;23.218;2023-09-19T15:01:42;14.07;;;5.28;;
43552;SDS011;29153;42.696;23.218;2023-09-19T15:04:10;11.12;;;5.10;;
43552;SDS011;29153;42.696;23.218;2023-09-19T15:06:37;7.58;;;5.10;;
43552;SDS011;29153;42.696;23.218;2023-09-19T15:09:05;8.25;;;5.10;;
43552;SDS011;29153;42.696;23.218;2023-09-19T15:11:34;7.97;;;4.60;;
43552;SDS011;29153;42.696;23.218;2023-09-19T15:14:01;12.07;;;5.58;;
43552;SDS011;29153;42.696;23.218;2023-09-19T15:16:29;10.55;;;5.15;;
43552;SDS011;29153;42.696;23.218;2023-09-19T15:18:58;11.18;;;5.50;;
43552;SDS011;29153;42.696;23.218;2023-09-19T15:21:25;9.08;;;5.53;;
43552;SDS011;29153;42.696;23.218;2023-09-19T15:23:53;11.28;;;5.70;;
43552;SDS011;29153;42.696;23.218;2023-09-19T15:26:21;11.48;;;5.25;;
43552;SDS011;29153;42.696;23.218;2023-09-19T15:28:50;11.53;;;6.00;;
43552;SDS011;29153;42.696;23.218;2023-09-19T15:31:20;9.73;;;4.95;;
43552;SDS011;29153;42.696;23.218;2023-09-19T15:33:47;8.63;;;5.22;;
43552;SDS011;29153;42.696;23.218;2023-09-19T15:36:15;11.12;;;4.90;;
43552;SDS011;29153;42.696;23.218;2023-09-19T15:41:27;8.35;;;5.37;;
43552;SDS011;29153;42.696;23.218;2023-09-19T15:43:59;10.50;;;5.40;;
43552;SDS011;29153;42.696;23.218;2023-09-19T15:46:29;10.28;;;6.33;;
43552;SDS011;29153;42.696;23.218;2023-09-19T15:48:59;13.48;;;5.42;;
43552;SDS011;29153;42.696;23.218;2023-09-19T15:51:27;11.08;;;6.17;;
43552;SDS011;29153;42.696;23.218;2023-09-19T15:53:55;11.20;;;6.08;;
43552;SDS011;29153;42.696;23.218;2023-09-19T15:56:26;13.03;;;6.37;;
43552;SDS011;29153;42.696;23.218;2023-09-19T15:58:54;8.73;;;6.53;;
43552;SDS011;29153;42.696;23.218;2023-09-19T16:01:22;10.70;;;6.80;;
43552;SDS011;29153;42.696;23.218;2023-09-19T16:03:51;10.03;;;6.75;;
43552;SDS011;29153;42.696;23.218;2023-09-19T16:06:26;11.65;;;7.37;;
43552;SDS011;29153;42.696;23.218;2023-09-19T16:08:55;9.50;;;6.30;;
43552;SDS011;29153;42.696;23.218;2023-09-19T16:11:24;13.78;;;7.47;;
43552;SDS011;29153;42.696;23.218;2023-09-19T16:13:53;10.78;;;6.17;;
43552;SDS011;29153;42.696;23.218;2023-09-19T16:16:21;12.50;;;7.10;;
43552;SDS011;29153;42.696;23.218;2023-09-19T16:18:51;10.65;;;7.05;;
43552;SDS011;29153;42.696;23.218;2023-09-19T16:21:21;13.72;;;5.72;;
43552;SDS011;29153;42.696;23.218;2023-09-19T16:23:52;11.90;;;6.08;;
43552;SDS011;29153;42.696;23.218;2023-09-19T16:26:20;13.28;;;6.72;;
43552;SDS011;29153;42.696;23.218;2023-09-19T16:28:50;13.38;;;6.95;;
43552;SDS011;29153;42.696;23.218;2023-09-19T16:34:31;9.65;;;6.10;;
43552;SDS011;29153;42.696;23.218;2023-09-19T16:37:00;10.88;;;7.35;;
43552;SDS011;29153;42.696;23.218;2023-09-19T16:39:27;12.03;;;7.55;;
43552;SDS011;29153;42.696;23.218;2023-09-19T16:41:55;10.78;;;7.90;;
43552;SDS011;29153;42.696;23.218;2023-09-19T16:44:22;11.40;;;7.45;;
43552;SDS011;29153;42.696;23.218;2023-09-19T16:46:50;9.43;;;7.50;;
43552;SDS011;29153;42.696;23.218;2023-09-19T16:49:17;13.78;;;8.88;;
43552;SDS011;29153;42.696;23.218;2023-09-19T16:51:46;10.72;;;7.60;;
43552;SDS011;29153;42.696;23.218;2023-09-19T16:54:29;14.50;;;10.15;;
43552;SDS011;29153;42.696;23.218;2023-09-19T16:56:57;17.05;;;10.32;;
43552;SDS011;29153;42.696;23.218;2023-09-19T16:59:24;15.72;;;11.53;;
43552;SDS011;29153;42.696;23.218;2023-09-19T17:01:53;18.15;;;11.00;;
43552;SDS011;29153;42.696;23.218;2023-09-19T17:04:22;15.55;;;10.55;;
43552;SDS011;29153;42.696;23.218;2023-09-19T17:06:50;17.92;;;12.60;;
43552;SDS011;29153;42.696;23.218;2023-09-19T17:09:19;22.20;;;15.20;;
43552;SDS011;29153;42.696;23.218;2023-09-19T17:11:47;17.57;;;12.82;;
43552;SDS011;29153;42.696;23.218;2023-09-19T17:14:15;16.15;;;12.73;;
43552;SDS011;29153;42.696;23.218;2023-09-19T17:16:44;18.55;;;12.43;;
43552;SDS011;29153;42.696;23.218;2023-09-19T17:19:13;21.02;;;13.15;;
43552;SDS011;29153;42.696;23.218;2023-09-19T17:21:40;16.93;;;12.25;;
43552;SDS011;29153;42.696;23.218;2023-09-19T17:24:08;17.15;;;12.60;;
43552;SDS011;29153;42.696;23.218;2023-09-19T17:26:37;15.13;;;11.90;;
43552;SDS011;29153;42.696;23.218;2023-09-19T17:29:06;18.62;;;12.75;;
43552;SDS011;29153;42.696;23.218;2023-09-19T17:31:35;17.20;;;11.85;;
43552;SDS011;29153;42.696;23.218;2023-09-19T17:34:04;19.15;;;12.28;;
43552;SDS011;29153;42.696;23.218;2023-09-19T17:36:32;16.25;;;11.15;;
43552;SDS011;29153;42.696;23.218;2023-09-19T17:39:01;14.65;;;10.72;;
43552;SDS011;29153;42.696;23.218;2023-09-19T17:41:30;14.13;;;9.10;;
43552;SDS011;29153;42.696;23.218;2023-09-19T17:43:58;11.83;;;8.95;;
43552;SDS011;29153;42.696;23.218;2023-09-19T17:46:26;11.03;;;8.38;;
43552;SDS011;29153;42.696;23.218;2023-09-19T17:48:58;12.93;;;7.37;;
43552;SDS011;29153;42.696;23.218;2023-09-19T17:51:26;11.25;;;8.05;;
43552;SDS011;29153;42.696;23.218;2023-09-19T17:53:55;11.85;;;8.35;;
43552;SDS011;29153;42.696;23.218;2023-09-19T17:56:25;13.03;;;7.80;;
43552;SDS011;29153;42.696;23.218;2023-09-19T17:58:53;14.60;;;9.45;;
43552;SDS011;29153;42.696;23.218;2023-09-19T18:01:22;12.70;;;7.40;;
43552;SDS011;29153;42.696;23.218;2023-09-19T18:03:52;11.35;;;7.75;;
43552;SDS011;29153;42.696;23.218;2023-09-19T18:06:24;11.60;;;7.62;;
43552;SDS011;29153;42.696;23.218;2023-09-19T18:08:52;10.70;;;7.60;;
43552;SDS011;29153;42.696;23.218;2023-09-19T18:11:26;9.33;;;7.12;;
43552;SDS011;29153;42.696;23.218;2023-09-19T18:13:59;10.95;;;7.58;;
43552;SDS011;29153;42.696;23.218;2023-09-19T18:16:24;11.28;;;7.45;;
43552;SDS011;29153;42.696;23.218;2023-09-19T18:18:57;12.80;;;8.30;;
43552;SDS011;29153;42.696;23.218;2023-09-19T18:21:26;12.20;;;8.90;;
43552;SDS011;29153;42.696;23.218;2023-09-19T18:23:55;13.45;;;8.25;;
43552;SDS011;29153;42.696;23.218;2023-09-19T18:26:29;13.20;;;8.20;;
43552;SDS011;29153;42.696;23.218;2023-09-19T18:28:57;11.43;;;8.28;;
43552;SDS011;29153;42.696;23.218;2023-09-19T18:31:26;13.15;;;8.83;;
43552;SDS011;29153;42.696;23.218;2023-09-19T18:33:56;14.73;;;8.45;;
43552;SDS011;29153;42.696;23.218;2023-09-19T18:38:52;13.95;;;7.90;;
43552;SDS011;29153;42.696;23.218;2023-09-19T18:41:20;12.55;;;7.60;;
43552;SDS011;29153;42.696;23.218;2023-09-19T18:43:48;14.43;;;7.75;;
43552;SDS011;29153;42.696;23.218;2023-09-19T18:46:16;13.72;;;8.65;;
43552;SDS011;29153;42.696;23.218;2023-09-19T18:48:44;14.98;;;7.78;;
43552;SDS011;29153;42.696;23.218;2023-09-19T18:51:13;12.13;;;7.90;;
43552;SDS011;29153;42.696;23.218;2023-09-19T18:53:45;11.80;;;7.17;;
43552;SDS011;29153;42.696;23.218;2023-09-19T18:56:15;12.43;;;8.23;;
43552;SDS011;29153;42.696;23.218;2023-09-19T18:58:44;12.18;;;7.67;;
43552;SDS011;29153;42.696;23.218;2023-09-19T19:01:13;11.30;;;7.30;;
43552;SDS011;29153;42.696;23.218;2023-09-19T19:06:10;11.70;;;8.10;;
43552;SDS011;29153;42.696;23.218;2023-09-19T19:08:42;13.45;;;7.67;;
43552;SDS011;29153;42.696;23.218;2023-09-19T19:11:14;11.50;;;7.65;;
43552;SDS011;29153;42.696;23.218;2023-09-19T19:13:46;14.03;;;7.83;;
43552;SDS011;29153;42.696;23.218;2023-09-19T19:16:14;14.13;;;8.83;;
43552;SDS011;29153;42.696;23.218;2023-09-19T19:18:44;11.50;;;8.35;;
43552;SDS011;29153;42.696;23.218;2023-09-19T19:21:12;11.83;;;8.35;;
43552;SDS011;29153;42.696;23.218;2023-09-19T19:23:43;11.55;;;7.87;;
43552;SDS011;29153;42.696;23.218;2023-09-19T19:26:10;13.38;;;8.00;;
43552;SDS011;29153;42.696;23.218;2023-09-19T19:28:40;10.63;;;6.85;;
43552;SDS011;29153;42.696;23.218;2023-09-19T19:31:09;9.85;;;7.58;;
43552;SDS011;29153;42.696;23.218;2023-09-19T19:33:37;12.95;;;7.67;;
43552;SDS011;29153;42.696;23.218;2023-09-19T19:38:33;11.75;;;8.30;;
43552;SDS011;29153;42.696;23.218;2023-09-19T19:41:02;13.40;;;8.35;;
43552;SDS011;29153;42.696;23.218;2023-09-19T19:43:31;10.82;;;7.75;;
43552;SDS011;29153;42.696;23.218;2023-09-19T19:46:00;10.53;;;6.33;;
43552;SDS011;29153;42.696;23.218;2023-09-19T19:48:30;11.38;;;7.87;;
43552;SDS011;29153;42.696;23.218;2023-09-19T19:50:59;12.05;;;7.50;;
43552;SDS011;29153;42.696;23.218;2023-09-19T19:53:35;10.88;;;7.15;;
43552;SDS011;29153;42.696;23.218;2023-09-19T19:56:07;12.25;;;7.37;;
43552;SDS011;29153;42.696;23.218;2023-09-19T19:58:34;9.85;;;7.08;;
43552;SDS011;29153;42.696;23.218;2023-09-19T20:01:03;12.75;;;7.75;;
43552;SDS011;29153;42.696;23.218;2023-09-19T20:03:35;11.05;;;7.37;;
43552;SDS011;29153;42.696;23.218;2023-09-19T20:06:03;12.73;;;6.67;;
43552;SDS011;29153;42.696;23.218;2023-09-19T20:08:31;13.88;;;8.00;;
43552;SDS011;29153;42.696;23.218;2023-09-19T20:11:02;20.20;;;7.87;;
43552;SDS011;29153;42.696;23.218;2023-09-19T20:13:32;18.62;;;7.50;;
43552;SDS011;29153;42.696;23.218;2023-09-19T20:16:01;12.55;;;6.65;;
43552;SDS011;29153;42.696;23.218;2023-09-19T20:18:33;16.35;;;8.08;;
43552;SDS011;29153;42.696;23.218;2023-09-19T20:21:05;14.75;;;7.90;;
43552;SDS011;29153;42.696;23.218;2023-09-19T20:23:36;12.58;;;8.28;;
43552;SDS011;29153;42.696;23.218;2023-09-19T20:26:06;10.35;;;7.28;;
43552;SDS011;29153;42.696;23.218;2023-09-19T20:28:36;11.88;;;7.53;;
43552;SDS011;29153;42.696;23.218;2023-09-19T20:31:07;14.35;;;7.47;;
43552;SDS011;29153;42.696;23.218;2023-09-19T20:33:36;10.82;;;5.85;;
43552;SDS011;29153;42.696;23.218;2023-09-19T20:36:04;10.38;;;6.10;;
43552;SDS011;29153;42.696;23.218;2023-09-19T20:38:34;10.23;;;6.03;;
43552;SDS011;29153;42.696;23.218;2023-09-19T20:41:03;13.05;;;6.58;;
43552;SDS011;29153;42.696;23.218;2023-09-19T20:43:34;16.55;;;6.10;;
43552;SDS011;29153;42.696;23.218;2023-09-19T20:46:03;11.45;;;6.05;;
43552;SDS011;29153;42.696;23.218;2023-09-19T20:48:32;16.75;;;5.65;;
43552;SDS011;29153;42.696;23.218;2023-09-19T20:51:06;16.17;;;5.50;;
43552;SDS011;29153;42.696;23.218;2023-09-19T20:53:36;13.03;;;5.05;;
43552;SDS011;29153;42.696;23.218;2023-09-19T20:56:04;11.25;;;4.30;;
43552;SDS011;29153;42.696;23.218;2023-09-19T20:58:32;9.30;;;4.22;;
43552;SDS011;29153;42.696;23.218;2023-09-19T21:01:03;10.10;;;4.55;;
43552;SDS011;29153;42.696;23.218;2023-09-19T21:03:32;10.50;;;4.20;;
43552;SDS011;29153;42.696;23.218;2023-09-19T21:06:02;8.00;;;3.55;;
43552;SDS011;29153;42.696;23.218;2023-09-19T21:08:31;10.38;;;3.90;;
43552;SDS011;29153;42.696;23.218;2023-09-19T21:11:08;8.28;;;4.05;;
43552;SDS011;29153;42.696;23.218;2023-09-19T21:13:39;7.83;;;3.15;;
43552;SDS011;29153;42.696;23.218;2023-09-19T21:16:08;9.85;;;3.80;;
43552;SDS011;29153;42.696;23.218;2023-09-19T21:18:39;8.15;;;3.60;;
43552;SDS011;29153;42.696;23.218;2023-09-19T21:21:08;8.30;;;3.27;;
43552;SDS011;29153;42.696;23.218;2023-09-19T21:23:36;8.05;;;3.00;;
43552;SDS011;29153;42.696;23.218;2023-09-19T21:26:05;8.88;;;3.05;;
43552;SDS011;29153;42.696;23.218;2023-09-19T21:28:33;7.17;;;3.17;;
43552;SDS011;29153;42.696;23.218;2023-09-19T21:31:02;9.98;;;3.50;;
43552;SDS011;29153;42.696;23.218;2023-09-19T21:33:40;7.03;;;3.30;;